»·PEaware :: SWA187 KFLL-KATL

SWA187 :: KFLL-KATL

FLIGHT INFORMATION

Flight Status: Arrived
Operator:
Southwest Airlines
More flights by this operator :: More flights under this callsign
Pilot: Anonymous 14085 (14085)
Aircraft: BOEING 737-800
(B738)
More flights by this aircraft type
Origin: KFLL Ft Lauderdale-Hollywood Intl
United States
Destination: KATL Hartsfield-Jackson Atlanta
United States
More flights between these airports :: More routes between these airports
Route: ARKES4 ARKES DCT ORL J81 CHESN DCT LAIRI DCT HOWRR SMOOV1
File this flight plan on PilotEdge
Remarks:
Altitude:
(Current/Filed)
36,000ft
Speed:
(Current/Filed)
450kts
Departed: 05-Jun-17 04:48 PM
Arrived: 05-Jun-17 05:28 PM
Distance/Time
Traveled:
506nm/0:40
Distance/Time
To Go:
Arrived

Flight Plot

Page will automatically refresh every two minutes.

Flight plan parsing failed; only flown route is shown


Map Options




Map Legend


Flown Route
Filed Route
Departure Airport
Arrival Airport
Navaid (VOR, NDB)
Fix

Horizontal Profiles

Position Reports

Time Latitude Longitude Heading Altitude Ground
Speed
05-Jun-17 16:49 30.587105 -81.837803 0 37915ft 467kts
05-Jun-17 16:50 30.713834 -81.832532 336 37908ft 445kts
05-Jun-17 16:51 30.821277 -81.893720 324 37918ft 433kts
05-Jun-17 16:52 30.924723 -81.963375 323 37914ft 432kts
05-Jun-17 16:53 31.027517 -82.033733 323 37889ft 432kts
05-Jun-17 16:54 31.127704 -82.102587 323 37885ft 432kts
05-Jun-17 16:55 31.229959 -82.173049 323 37884ft 432kts
05-Jun-17 16:56 31.332890 -82.244164 323 37883ft 432kts
05-Jun-17 16:57 31.434964 -82.314847 323 37910ft 433kts
05-Jun-17 16:58 31.537728 -82.386224 323 37908ft 432kts
05-Jun-17 16:59 31.640173 -82.457557 322 37907ft 432kts
05-Jun-17 17:00 31.742817 -82.529210 322 37907ft 432kts
05-Jun-17 17:01 31.844881 -82.600642 322 37906ft 432kts
05-Jun-17 17:02 31.942982 -82.669322 322 37001ft 411kts
05-Jun-17 17:03 32.042638 -82.739829 322 34683ft 445kts
05-Jun-17 17:04 32.130496 -82.801632 322 32441ft 443kts
05-Jun-17 17:05 32.230560 -82.872268 322 29613ft 429kts
05-Jun-17 17:06 32.329795 -82.942610 322 26615ft 414kts
05-Jun-17 17:07 32.419117 -83.018910 313 23774ft 388kts
05-Jun-17 17:08 32.498071 -83.099975 313 21610ft 376kts
05-Jun-17 17:09 32.575364 -83.179764 313 20921ft 373kts
05-Jun-17 17:10 32.652999 -83.260249 313 20252ft 370kts
05-Jun-17 17:11 32.729461 -83.339755 313 19237ft 366kts
05-Jun-17 17:12 32.804860 -83.418340 313 18904ft 365kts
05-Jun-17 17:13 32.880352 -83.497201 313 17810ft 359kts
05-Jun-17 17:14 32.953633 -83.574031 313 16189ft 350kts
05-Jun-17 17:15 33.025354 -83.649281 314 14687ft 343kts
05-Jun-17 17:16 33.093073 -83.720418 314 13076ft 333kts
05-Jun-17 17:17 33.154920 -83.785470 314 11206ft 320kts
05-Jun-17 17:18 33.213762 -83.849825 311 10109ft 290kts
05-Jun-17 17:19 33.270319 -83.916134 311 8847ft 287kts
05-Jun-17 17:20 33.332183 -83.973744 337 7988ft 292kts
05-Jun-17 17:21 33.407772 -84.008828 321 7976ft 290kts
05-Jun-17 17:22 33.471739 -84.067162 319 6665ft 289kts
05-Jun-17 17:23 33.534694 -84.125291 321 5047ft 285kts
05-Jun-17 17:24 33.595770 -84.181632 322 3419ft 264kts
05-Jun-17 17:25 33.628525 -84.241110 277 2783ft 192kts
05-Jun-17 17:26 33.631547 -84.301358 270 2872ft 193kts
05-Jun-17 17:27 33.632310 -84.354453 274 2025ft 144kts
05-Jun-17 17:28 33.634667 -84.400145 269 1153ft 141kts
05-Jun-17 17:29 33.634703 -84.435435 269 973ft 55kts
05-Jun-17 17:30 33.634717 -84.444398 270 973ft 10kts
05-Jun-17 17:31 33.636055 -84.444880 358 973ft 7kts
05-Jun-17 17:32 33.540071 -84.130233 321 4910ft 285kts
05-Jun-17 17:33 33.600860 -84.186335 322 3255ft 260kts
05-Jun-17 17:34 33.627882 -84.236526 279 2785ft 192kts
05-Jun-17 17:35 33.631535 -84.300461 270 2868ft 193kts
05-Jun-17 17:36 33.632945 -84.361413 275 1786ft 143kts
05-Jun-17 17:37 33.634691 -84.407093 269 1032ft 140kts
05-Jun-17 17:38 33.634705 -84.435111 269 973ft 56kts
05-Jun-17 17:39 33.633190 -84.363871 276 1714ft 142kts
05-Jun-17 17:40 33.634690 -84.417186 269 973ft 126kts
05-Jun-17 17:41 33.632359 -84.355062 274 2003ft 144kts
05-Jun-17 17:42 33.634667 -84.400745 269 1142ft 141kts
05-Jun-17 17:43 33.634699 -84.435691 268 973ft 54kts
05-Jun-17 17:44 33.634717 -84.444444 271 973ft 9kts

Navigation Log

Ident Type
Flight plan parsing failed, navigation log unavailable